Terminal Aerodrome Forecast
Issued by NWS

Home | Current Version | Previous Version | Text Only | Print | Product List | Glossary On
Versions: 1 2 3 4 5 6 7 8 9 10 11 12 13 14 15 16 17 18 19 20 21 22 23 24 25 26
209
FTUS44 KLZK 071102 AAB
TAFLIT
TAF AMD
KLIT 071102Z 0711/0806 04008KT P6SM BKN030 OVC050
      TEMPO 0711/0713 -DZ BKN025
     FM071500 05008KT P6SM SCT025 OVC050 PROB30 0722/0804 5SM -RA BR
      OVC035=

USA.gov is the U.S. government's official web portal to all federal, state and local government web resources and services.